Time;durP1;ratioP1;P1;durP2;ratioP2;P2;SDS_P1;SDS_P2;PMS_P1;PMS_P2;Temp;Humidity;BMP_temperature;BMP_pressure;BME280_temperature;BME280_humidity;BME280_pressure;Samples;Min_cycle;Max_cycle;Signal;HPM_P1;HPM_P2
2023/11/11 00:00:17;;;;;;;5.30;4.80;;;8.50;99.90;;;;;;4919786;29;20471;-63
2023/11/11 00:02:45;;;;;;;6.00;5.40;;;8.50;99.90;;;;;;4919980;29;20473;-63
2023/11/11 00:05:13;;;;;;;5.30;4.80;;;8.50;99.90;;;;;;4920418;29;20825;-62
2023/11/11 00:07:43;;;;;;;7.07;5.60;;;8.50;99.90;;;;;;4918073;29;20528;-63
2023/11/11 00:10:11;;;;;;;6.47;5.07;;;8.50;99.90;;;;;;4921444;29;20575;-62
2023/11/11 00:12:39;;;;;;;5.27;4.40;;;8.50;99.90;;;;;;4921247;29;20474;-62
2023/11/11 00:15:09;;;;;;;5.27;4.70;;;8.50;99.90;;;;;;4914454;28;20484;-62
2023/11/11 00:17:39;;;;;;;6.20;5.30;;;8.50;99.90;;;;;;4916742;29;20488;-63
2023/11/11 00:20:12;;;;;;;5.60;4.80;;;8.50;99.90;;;;;;4918639;29;20495;-62
2023/11/11 00:22:43;;;;;;;6.37;5.10;;;8.50;99.90;;;;;;4919512;29;20468;-62
2023/11/11 00:25:12;;;;;;;5.37;4.87;;;8.50;99.90;;;;;;4919202;28;20484;-63
2023/11/11 00:27:41;;;;;;;6.83;5.07;;;8.50;99.90;;;;;;4914331;29;20504;-61
2023/11/11 00:30:13;;;;;;;6.73;5.00;;;8.50;99.90;;;;;;4919064;29;20758;-62
2023/11/11 00:32:48;;;;;;;6.17;5.37;;;8.50;99.90;;;;;;4919202;29;20532;-62
2023/11/11 00:35:16;;;;;;;6.00;5.23;;;8.50;99.90;;;;;;4916569;29;20520;-62
2023/11/11 00:37:45;;;;;;;7.90;6.03;;;8.50;99.90;;;;;;4919165;29;20474;-62
2023/11/11 00:40:13;;;;;;;5.57;5.07;;;8.50;99.90;;;;;;4918363;29;20542;-63
2023/11/11 00:42:41;;;;;;;6.93;5.70;;;8.50;99.90;;;;;;4920247;29;20499;-63
2023/11/11 00:45:10;;;;;;;6.00;5.40;;;8.50;99.90;;;;;;4917716;28;20501;-63
2023/11/11 00:47:39;;;;;;;6.53;5.40;;;8.50;99.90;;;;;;4916006;29;20654;-63
2023/11/11 00:50:09;;;;;;;5.77;5.23;;;8.50;99.90;;;;;;4920168;29;20479;-63
2023/11/11 00:52:37;;;;;;;7.07;5.10;;;8.50;99.90;;;;;;4918505;29;20476;-62
2023/11/11 00:55:07;;;;;;;6.60;5.00;;;8.50;99.90;;;;;;4920432;28;20599;-63
2023/11/11 00:57:35;;;;;;;6.30;5.47;;;8.50;99.90;;;;;;4919378;29;20472;-63
2023/11/11 01:00:04;;;;;;;6.10;5.50;;;8.60;99.90;;;;;;4917107;29;20483;-63
2023/11/11 01:02:32;;;;;;;7.70;6.37;;;8.60;99.90;;;;;;4919180;29;20469;-63
2023/11/11 01:05:00;;;;;;;6.63;5.53;;;8.50;99.90;;;;;;4916157;28;20496;-62
2023/11/11 01:07:30;;;;;;;6.60;5.17;;;8.50;99.90;;;;;;4917643;29;20962;-63
2023/11/11 01:09:58;;;;;;;6.60;5.37;;;8.50;99.90;;;;;;4915783;29;20554;-63
2023/11/11 01:12:26;;;;;;;6.90;5.23;;;8.50;99.90;;;;;;4917805;29;20582;-63
2023/11/11 01:14:54;;;;;;;8.50;6.10;;;8.50;99.90;;;;;;4919093;28;20552;-62
2023/11/11 01:17:23;;;;;;;7.63;6.00;;;8.50;99.90;;;;;;4919359;29;20515;-63
2023/11/11 01:19:51;;;;;;;7.00;6.30;;;8.50;99.90;;;;;;4919876;29;21014;-63
2023/11/11 01:22:19;;;;;;;7.00;6.30;;;8.60;99.90;;;;;;4918930;29;20500;-63
2023/11/11 01:24:49;;;;;;;6.83;6.17;;;8.60;99.90;;;;;;4918574;28;20677;-62
2023/11/11 01:27:17;;;;;;;6.97;6.27;;;8.60;99.90;;;;;;4920452;29;20528;-62
2023/11/11 01:29:45;;;;;;;8.77;7.03;;;8.60;99.90;;;;;;4923350;29;20488;-62
2023/11/11 01:32:13;;;;;;;9.70;6.60;;;8.60;99.90;;;;;;4921908;29;21348;-63
2023/11/11 01:34:41;;;;;;;7.90;6.20;;;8.60;99.90;;;;;;4926078;28;20526;-63
2023/11/11 01:37:09;;;;;;;6.77;6.07;;;8.60;99.90;;;;;;4926890;29;20473;-62
2023/11/11 01:39:37;;;;;;;7.00;6.33;;;8.60;99.90;;;;;;4919234;29;20483;-62
2023/11/11 01:42:07;;;;;;;7.30;6.63;;;8.60;99.90;;;;;;4927694;29;21120;-63
2023/11/11 01:44:35;;;;;;;7.20;6.50;;;8.60;99.90;;;;;;4920605;28;20579;-62
2023/11/11 01:47:04;;;;;;;7.50;6.80;;;8.60;99.90;;;;;;4924437;29;20527;-63
2023/11/11 01:49:33;;;;;;;7.63;6.83;;;8.60;99.90;;;;;;4926654;29;20472;-62
2023/11/11 01:52:01;;;;;;;9.07;6.90;;;8.60;99.90;;;;;;4927708;29;21054;-63
2023/11/11 01:54:30;;;;;;;10.90;7.93;;;8.60;99.90;;;;;;4925145;28;20534;-62
2023/11/11 01:57:00;;;;;;;6.70;6.10;;;8.60;99.90;;;;;;4924141;29;20967;-62
2023/11/11 01:59:29;;;;;;;8.00;7.20;;;8.60;99.90;;;;;;4923048;29;20886;-63
2023/11/11 02:01:59;;;;;;;9.20;7.70;;;8.60;99.90;;;;;;4924199;29;20484;-62
2023/11/11 02:04:28;;;;;;;8.40;6.97;;;8.60;99.90;;;;;;4925358;28;20527;-63
2023/11/11 02:06:56;;;;;;;7.40;6.70;;;8.60;99.90;;;;;;4920920;29;20606;-63
2023/11/11 02:09:25;;;;;;;7.83;7.03;;;8.60;99.90;;;;;;4924722;29;20483;-63
2023/11/11 02:11:55;;;;;;;8.83;7.73;;;8.60;99.90;;;;;;4923414;29;20480;-62
2023/11/11 02:14:24;;;;;;;11.10;7.50;;;8.60;99.90;;;;;;4920664;28;20494;-63
2023/11/11 02:16:53;;;;;;;7.70;6.90;;;8.70;99.90;;;;;;4923927;29;20972;-62
2023/11/11 02:19:21;;;;;;;7.70;7.00;;;8.70;99.90;;;;;;4924447;29;20511;-63
2023/11/11 02:21:49;;;;;;;9.83;7.77;;;8.60;99.90;;;;;;4925060;29;20566;-62
2023/11/11 02:24:19;;;;;;;8.07;7.27;;;8.60;99.90;;;;;;4923406;28;21101;-63
2023/11/11 02:26:47;;;;;;;8.00;7.20;;;8.60;99.90;;;;;;4922817;29;20508;-62
2023/11/11 02:29:15;;;;;;;8.50;7.03;;;8.60;99.90;;;;;;4921190;29;20598;-62
2023/11/11 02:31:43;;;;;;;8.43;7.60;;;8.60;99.90;;;;;;4926183;29;20517;-62
2023/11/11 02:34:11;;;;;;;7.90;7.10;;;8.60;99.90;;;;;;4920028;28;20507;-63
2023/11/11 02:36:39;;;;;;;8.87;7.20;;;8.60;99.90;;;;;;4921988;29;20572;-62
2023/11/11 02:39:22;;;;;;;8.73;7.17;;;8.60;99.90;;;;;;4923529;29;20481;-62
2023/11/11 02:41:50;;;;;;;9.00;6.90;;;8.60;99.90;;;;;;4923463;29;20472;-62
2023/11/11 02:44:19;;;;;;;8.63;7.40;;;8.60;99.90;;;;;;4922255;28;20484;-62
2023/11/11 02:46:47;;;;;;;8.90;7.87;;;8.60;99.90;;;;;;4923319;29;21013;-62
2023/11/11 02:49:15;;;;;;;8.70;7.50;;;8.60;99.90;;;;;;4924268;29;20550;-62
2023/11/11 02:51:43;;;;;;;8.97;8.07;;;8.60;99.90;;;;;;4923230;29;20477;-63
2023/11/11 02:54:11;;;;;;;7.83;7.10;;;8.60;99.90;;;;;;4921462;28;20492;-62
2023/11/11 02:56:40;;;;;;;8.30;6.50;;;8.60;99.90;;;;;;4923014;29;20620;-63
2023/11/11 02:59:08;;;;;;;9.43;7.60;;;8.60;99.90;;;;;;4922339;29;20840;-63
2023/11/11 03:01:37;;;;;;;8.13;7.03;;;8.60;99.90;;;;;;4919151;29;20477;-63
2023/11/11 03:04:06;;;;;;;8.13;7.33;;;8.60;99.90;;;;;;4921453;28;20952;-62
2023/11/11 03:06:40;;;;;;;9.53;6.60;;;8.60;99.90;;;;;;4923626;29;20504;-63
2023/11/11 03:09:09;;;;;;;7.30;6.60;;;8.60;99.90;;;;;;4921257;29;20931;-62
2023/11/11 03:11:38;;;;;;;9.07;7.03;;;8.60;99.90;;;;;;4920251;29;20480;-63
2023/11/11 03:14:07;;;;;;;8.17;6.40;;;8.60;99.90;;;;;;4922312;28;20559;-63
2023/11/11 03:16:36;;;;;;;7.87;7.17;;;8.60;99.90;;;;;;4917555;29;20537;-63
2023/11/11 03:19:05;;;;;;;8.90;7.47;;;8.50;99.90;;;;;;4921528;29;20482;-63
2023/11/11 03:21:34;;;;;;;11.00;7.53;;;8.50;99.90;;;;;;4921624;29;20559;-62
2023/11/11 03:24:03;;;;;;;8.97;7.07;;;8.50;99.90;;;;;;4920700;28;20495;-62
2023/11/11 03:26:31;;;;;;;9.20;7.37;;;8.50;99.90;;;;;;4920051;29;20480;-63
2023/11/11 03:28:59;;;;;;;9.90;6.63;;;8.60;99.90;;;;;;4922303;29;21031;-62
2023/11/11 03:31:29;;;;;;;6.93;6.23;;;8.60;99.90;;;;;;4920510;29;20531;-62
2023/11/11 03:33:57;;;;;;;9.20;7.37;;;8.50;99.90;;;;;;4915568;28;20568;-63
2023/11/11 03:36:25;;;;;;;7.90;6.50;;;8.60;99.90;;;;;;4921590;29;20517;-63
2023/11/11 03:38:53;;;;;;;7.13;6.37;;;8.60;99.90;;;;;;4921111;29;20587;-62
2023/11/11 03:41:21;;;;;;;7.63;6.83;;;8.60;99.90;;;;;;4921337;29;21010;-62
2023/11/11 03:43:49;;;;;;;7.40;6.70;;;8.50;99.90;;;;;;4918942;28;20915;-63
2023/11/11 03:46:17;;;;;;;7.80;7.00;;;8.50;99.90;;;;;;4920850;29;20587;-63
2023/11/11 03:48:47;;;;;;;7.70;6.80;;;8.50;99.90;;;;;;4919933;29;20504;-62
2023/11/11 03:51:15;;;;;;;8.93;6.90;;;8.60;99.90;;;;;;4920698;29;20476;-63
2023/11/11 03:53:43;;;;;;;9.00;6.43;;;8.60;99.90;;;;;;4919741;28;21009;-63
2023/11/11 03:56:11;;;;;;;7.80;7.00;;;8.60;99.90;;;;;;4920603;29;20478;-61
2023/11/11 03:58:39;;;;;;;7.07;6.00;;;8.50;99.90;;;;;;4918763;29;20572;-62
2023/11/11 04:01:10;;;;;;;9.53;7.00;;;8.50;99.90;;;;;;4921126;29;20476;-62
2023/11/11 04:03:39;;;;;;;8.40;6.77;;;8.50;99.90;;;;;;4912828;28;20647;-62
2023/11/11 04:06:09;;;;;;;11.10;7.33;;;8.50;99.90;;;;;;4922345;29;20556;-63
2023/11/11 04:08:38;;;;;;;8.90;6.50;;;8.50;99.90;;;;;;4919692;29;20574;-62
2023/11/11 04:11:07;;;;;;;7.40;6.60;;;8.50;99.90;;;;;;4919482;29;20584;-62
2023/11/11 04:13:38;;;;;;;13.27;7.10;;;8.50;99.90;;;;;;4918845;28;20837;-62
2023/11/11 04:16:08;;;;;;;8.43;6.47;;;8.50;99.90;;;;;;4921034;29;20472;-62
2023/11/11 04:18:37;;;;;;;8.40;6.43;;;8.50;99.90;;;;;;4919519;29;20582;-62
2023/11/11 04:21:06;;;;;;;9.73;6.50;;;8.50;99.90;;;;;;4917737;29;20476;-63
2023/11/11 04:23:35;;;;;;;8.90;6.37;;;8.50;99.90;;;;;;4919084;28;20492;-62
2023/11/11 04:26:03;;;;;;;9.80;6.90;;;8.50;99.90;;;;;;4920605;29;20562;-62
2023/11/11 04:28:31;;;;;;;8.43;6.53;;;8.50;99.90;;;;;;4919130;29;21078;-62
2023/11/11 04:30:59;;;;;;;8.50;7.20;;;8.50;99.90;;;;;;4919729;29;20472;-62
2023/11/11 04:33:28;;;;;;;8.53;7.63;;;8.50;99.90;;;;;;4917276;28;20560;-62
2023/11/11 04:35:56;;;;;;;13.20;7.20;;;8.50;99.90;;;;;;4916861;29;20484;-62
2023/11/11 04:38:24;;;;;;;8.77;7.87;;;8.50;99.90;;;;;;4918862;29;20548;-62
2023/11/11 04:40:58;;;;;;;10.00;7.20;;;8.50;99.90;;;;;;4915504;29;20481;-61
2023/11/11 04:43:27;;;;;;;7.20;6.50;;;8.50;99.90;;;;;;4919921;28;20583;-63
2023/11/11 04:45:55;;;;;;;9.30;6.53;;;8.50;99.90;;;;;;4918265;29;20484;-62
2023/11/11 04:48:23;;;;;;;8.43;6.60;;;8.50;99.90;;;;;;4918748;29;20495;-62
2023/11/11 04:50:51;;;;;;;7.30;6.60;;;8.50;99.90;;;;;;4916995;29;20506;-62
2023/11/11 04:53:19;;;;;;;9.23;6.93;;;8.50;99.90;;;;;;4918240;28;20944;-63
2023/11/11 04:55:48;;;;;;;8.77;6.63;;;8.60;99.90;;;;;;4914632;29;20496;-62
2023/11/11 04:58:17;;;;;;;8.70;7.47;;;8.60;99.90;;;;;;4916306;29;20506;-62
2023/11/11 05:00:46;;;;;;;7.60;6.63;;;8.60;99.90;;;;;;4917895;29;21078;-62
2023/11/11 05:03:17;;;;;;;7.73;6.93;;;8.60;99.90;;;;;;4915759;28;20480;-63
2023/11/11 05:05:45;;;;;;;9.30;6.83;;;8.60;99.90;;;;;;4918089;29;20488;-63
2023/11/11 05:08:13;;;;;;;9.80;7.17;;;8.60;99.90;;;;;;4918444;29;21017;-62
2023/11/11 05:10:41;;;;;;;7.20;6.50;;;8.60;99.90;;;;;;4917387;29;20468;-62
2023/11/11 05:13:09;;;;;;;9.90;7.07;;;8.60;99.90;;;;;;4915674;28;20555;-62
2023/11/11 05:15:45;;;;;;;7.30;6.60;;;8.60;99.90;;;;;;4918365;29;20558;-62
2023/11/11 05:18:13;;;;;;;8.10;6.10;;;8.60;99.90;;;;;;4915145;29;21004;-63
2023/11/11 05:20:41;;;;;;;8.47;6.73;;;8.60;99.90;;;;;;4917360;29;20489;-63
2023/11/11 05:23:09;;;;;;;9.30;6.33;;;8.60;99.90;;;;;;4918505;28;20572;-62
2023/11/11 05:25:38;;;;;;;6.90;6.20;;;8.60;99.90;;;;;;4917515;29;20510;-62
2023/11/11 05:28:07;;;;;;;7.70;6.77;;;8.60;99.90;;;;;;4916488;29;21017;-62
2023/11/11 05:30:35;;;;;;;7.00;5.97;;;8.60;99.90;;;;;;4918746;29;20471;-62
2023/11/11 05:33:06;;;;;;;8.67;6.70;;;8.60;99.90;;;;;;4916797;28;20995;-62
2023/11/11 05:35:34;;;;;;;9.47;6.00;;;8.60;99.90;;;;;;4919227;29;20487;-63
2023/11/11 05:38:02;;;;;;;7.17;6.03;;;8.60;99.90;;;;;;4911735;29;20568;-63
2023/11/11 05:40:30;;;;;;;7.67;5.90;;;8.60;99.90;;;;;;4920609;29;20558;-62
2023/11/11 05:43:00;;;;;;;8.23;6.63;;;8.60;99.90;;;;;;4919821;28;20481;-63
2023/11/11 05:45:28;;;;;;;7.20;6.13;;;8.60;99.90;;;;;;4917770;29;20877;-63
2023/11/11 05:47:56;;;;;;;8.87;7.73;;;8.60;99.90;;;;;;4917283;29;20830;-62
2023/11/11 05:50:26;;;;;;;7.30;6.60;;;8.60;99.90;;;;;;4920117;29;20476;-62
2023/11/11 05:52:54;;;;;;;7.13;6.40;;;8.60;99.90;;;;;;4918491;28;20494;-63
2023/11/11 05:55:24;;;;;;;8.87;7.00;;;8.60;99.90;;;;;;4918756;29;20598;-63
2023/11/11 05:57:52;;;;;;;8.50;6.90;;;8.60;99.90;;;;;;4919917;29;20499;-63
2023/11/11 06:00:21;;;;;;;8.13;6.27;;;8.60;99.90;;;;;;4920586;29;20468;-62
2023/11/11 06:02:49;;;;;;;8.00;6.70;;;8.60;99.90;;;;;;4915752;28;20505;-63
2023/11/11 06:05:17;;;;;;;8.27;6.50;;;8.60;99.90;;;;;;4918483;29;20640;-63
2023/11/11 06:07:46;;;;;;;8.77;6.40;;;8.50;99.90;;;;;;4917363;29;20552;-63
2023/11/11 06:10:17;;;;;;;9.90;7.57;;;8.50;99.90;;;;;;4917076;29;20547;-63
2023/11/11 06:12:45;;;;;;;7.10;6.40;;;8.50;99.90;;;;;;4919059;29;20476;-61
2023/11/11 06:15:13;;;;;;;8.50;6.13;;;8.50;99.90;;;;;;4915701;28;20544;-63
2023/11/11 06:17:41;;;;;;;6.80;5.77;;;8.50;99.90;;;;;;4922544;29;20851;-62
2023/11/11 06:20:11;;;;;;;8.13;6.20;;;8.50;99.90;;;;;;4921018;29;20777;-62
2023/11/11 06:22:39;;;;;;;7.97;6.00;;;8.50;99.90;;;;;;4921830;29;20508;-63
2023/11/11 06:25:09;;;;;;;6.70;5.90;;;8.50;99.90;;;;;;4915809;28;21000;-62
2023/11/11 06:27:37;;;;;;;5.80;5.13;;;8.50;99.90;;;;;;4919366;29;20537;-61
2023/11/11 06:30:08;;;;;;;7.27;6.10;;;8.50;99.90;;;;;;4921800;29;20500;-62
2023/11/11 06:32:37;;;;;;;7.70;6.40;;;8.50;99.90;;;;;;4921877;29;20527;-63
2023/11/11 06:35:08;;;;;;;7.30;5.53;;;8.50;99.90;;;;;;4922959;28;20468;-63
2023/11/11 06:37:36;;;;;;;6.13;5.20;;;8.50;99.90;;;;;;4919877;29;20490;-63
2023/11/11 06:40:05;;;;;;;8.70;6.33;;;8.50;99.90;;;;;;4917204;29;20776;-62
2023/11/11 06:42:34;;;;;;;5.90;5.30;;;8.50;99.90;;;;;;4922354;29;20483;-61
2023/11/11 06:45:03;;;;;;;8.37;5.70;;;8.50;99.90;;;;;;4923022;28;20487;-63
2023/11/11 06:47:31;;;;;;;6.00;5.20;;;8.50;99.90;;;;;;4923762;29;20498;-62
2023/11/11 06:49:59;;;;;;;5.87;5.23;;;8.50;99.90;;;;;;4922196;29;20972;-63
2023/11/11 06:52:27;;;;;;;5.80;5.20;;;8.50;99.90;;;;;;4922172;29;20537;-62
2023/11/11 06:54:55;;;;;;;7.43;6.00;;;8.50;99.90;;;;;;4921415;28;20490;-63
2023/11/11 06:57:23;;;;;;;9.20;6.20;;;8.50;99.90;;;;;;4916900;29;20905;-63
2023/11/11 06:59:54;;;;;;;7.20;5.93;;;8.50;99.90;;;;;;4924328;29;20538;-62
2023/11/11 07:02:22;;;;;;;7.40;6.60;;;8.50;99.90;;;;;;4917092;29;21028;-61
2023/11/11 07:04:53;;;;;;;8.20;6.50;;;8.50;99.90;;;;;;4916944;28;20594;-62
2023/11/11 07:07:22;;;;;;;9.20;7.60;;;8.50;99.90;;;;;;4922087;29;20483;-63
2023/11/11 07:09:52;;;;;;;9.53;8.33;;;8.50;99.90;;;;;;4920052;29;20866;-62
2023/11/11 07:12:22;;;;;;;11.87;7.90;;;8.50;99.90;;;;;;4918632;29;20975;-63
2023/11/11 07:14:52;;;;;;;10.87;8.40;;;8.50;99.90;;;;;;4916797;28;20488;-62
2023/11/11 07:17:20;;;;;;;9.37;7.50;;;8.50;99.90;;;;;;4920154;29;20484;-63
2023/11/11 07:19:48;;;;;;;8.80;7.70;;;8.50;99.90;;;;;;4909629;29;20479;-66
2023/11/11 07:22:18;;;;;;;12.50;8.20;;;8.60;99.90;;;;;;4915937;29;20826;-66
2023/11/11 07:24:49;;;;;;;9.57;8.60;;;8.60;99.90;;;;;;4918033;28;20596;-66
2023/11/11 07:27:18;;;;;;;9.23;7.80;;;8.60;99.90;;;;;;4910685;29;20488;-65
2023/11/11 07:29:46;;;;;;;11.73;8.50;;;8.60;99.90;;;;;;4914824;29;20496;-66
2023/11/11 07:32:15;;;;;;;11.50;8.47;;;8.60;99.90;;;;;;4911843;29;20535;-65
2023/11/11 07:34:44;;;;;;;10.97;8.40;;;8.60;99.90;;;;;;4905372;28;20499;-66
2023/11/11 07:37:13;;;;;;;9.80;7.83;;;8.60;99.90;;;;;;4921334;29;20495;-66
2023/11/11 07:39:41;;;;;;;8.97;7.30;;;8.60;99.90;;;;;;4918116;29;20618;-65
2023/11/11 07:42:09;;;;;;;10.63;7.10;;;8.60;99.90;;;;;;4917437;29;20491;-66
2023/11/11 07:44:37;;;;;;;7.13;6.43;;;8.60;99.90;;;;;;4911531;28;21093;-67
2023/11/11 07:47:07;;;;;;;9.63;6.70;;;8.70;99.90;;;;;;4913678;29;20536;-67
2023/11/11 07:49:36;;;;;;;7.70;5.97;;;8.70;99.90;;;;;;4912206;29;20989;-67
2023/11/11 07:52:05;;;;;;;9.27;6.53;;;8.60;99.90;;;;;;4916845;29;20521;-67
2023/11/11 07:54:35;;;;;;;8.90;6.67;;;8.60;99.90;;;;;;4918084;28;20499;-67
2023/11/11 07:57:06;;;;;;;10.63;7.20;;;8.60;99.90;;;;;;4916218;29;20591;-67
2023/11/11 07:59:35;;;;;;;9.00;7.43;;;8.60;99.90;;;;;;4918102;29;20567;-66
2023/11/11 08:02:04;;;;;;;11.10;7.20;;;8.60;99.90;;;;;;4915119;29;20925;-67
2023/11/11 08:04:33;;;;;;;9.23;6.40;;;8.60;99.90;;;;;;4918290;28;20503;-62
2023/11/11 08:07:02;;;;;;;9.83;7.07;;;8.60;99.90;;;;;;4913128;29;20472;-63
2023/11/11 08:09:31;;;;;;;9.07;7.30;;;8.60;99.90;;;;;;4915837;29;20933;-62
2023/11/11 08:11:59;;;;;;;10.00;7.20;;;8.60;99.90;;;;;;4916904;29;20540;-62
2023/11/11 08:14:28;;;;;;;8.50;6.80;;;8.60;99.90;;;;;;4916836;28;20512;-63
2023/11/11 08:16:57;;;;;;;12.30;8.10;;;8.60;99.90;;;;;;4914214;29;20575;-63
2023/11/11 08:19:27;;;;;;;11.00;6.77;;;8.60;99.90;;;;;;4913612;29;20464;-61
2023/11/11 08:21:55;;;;;;;7.90;6.80;;;8.60;99.90;;;;;;4912981;29;20596;-62
2023/11/11 08:24:25;;;;;;;8.10;7.10;;;8.60;99.90;;;;;;4915142;28;20619;-63
2023/11/11 08:26:56;;;;;;;11.47;8.67;;;8.60;99.90;;;;;;4911249;29;20484;-63
2023/11/11 08:29:24;;;;;;;9.53;7.40;;;8.70;99.90;;;;;;4914246;29;20928;-63
2023/11/11 08:31:52;;;;;;;10.20;7.80;;;8.70;99.90;;;;;;4913805;29;20476;-63
2023/11/11 08:34:25;;;;;;;11.30;8.10;;;8.70;99.90;;;;;;4915117;28;20530;-63
2023/11/11 08:36:53;;;;;;;11.40;8.37;;;8.70;99.90;;;;;;4907749;29;20560;-63
2023/11/11 08:39:22;;;;;;;8.93;7.90;;;8.70;99.90;;;;;;4910502;29;20568;-63
2023/11/11 08:41:52;;;;;;;13.00;8.47;;;8.70;99.90;;;;;;4904890;29;20970;-63
2023/11/11 08:44:20;;;;;;;15.20;10.10;;;8.70;99.90;;;;;;4906352;28;21018;-63
2023/11/11 08:46:49;;;;;;;17.17;11.40;;;8.70;99.90;;;;;;4913525;29;20499;-63
2023/11/11 08:49:17;;;;;;;17.70;11.50;;;8.80;99.90;;;;;;4917948;29;20527;-62
2023/11/11 08:51:46;;;;;;;15.70;12.87;;;8.80;99.90;;;;;;4916152;29;20518;-62
2023/11/11 08:54:14;;;;;;;17.07;11.60;;;8.80;99.90;;;;;;4917525;28;20512;-63
2023/11/11 08:56:42;;;;;;;17.93;12.20;;;8.80;99.90;;;;;;4917712;28;20476;-63
2023/11/11 08:59:15;;;;;;;16.30;12.93;;;8.80;99.90;;;;;;4920152;29;22079;-62
2023/11/11 09:01:43;;;;;;;15.10;11.93;;;8.80;99.90;;;;;;4911361;29;20498;-62
2023/11/11 09:04:11;;;;;;;22.60;14.23;;;8.80;99.90;;;;;;4907028;28;20650;-62
2023/11/11 09:06:39;;;;;;;17.00;12.40;;;8.80;99.90;;;;;;4917242;29;20484;-63
2023/11/11 09:09:07;;;;;;;17.20;12.13;;;8.90;99.90;;;;;;4917207;29;21667;-62
2023/11/11 09:11:36;;;;;;;14.90;11.30;;;8.90;99.90;;;;;;4916332;29;20674;-63
2023/11/11 09:14:05;;;;;;;19.00;12.40;;;8.80;99.90;;;;;;4903877;28;20496;-63
2023/11/11 09:16:35;;;;;;;15.30;11.57;;;8.90;99.90;;;;;;4900809;29;20489;-61
2023/11/11 09:19:03;;;;;;;18.37;12.70;;;8.90;99.90;;;;;;4909489;29;20479;-62
2023/11/11 09:21:32;;;;;;;15.80;11.70;;;8.90;99.90;;;;;;4906760;29;20480;-63
2023/11/11 09:24:00;;;;;;;19.07;12.80;;;9.00;99.90;;;;;;4908691;28;20518;-63
2023/11/11 09:26:29;;;;;;;15.50;10.90;;;9.00;99.90;;;;;;4911556;29;20531;-63
2023/11/11 09:28:58;;;;;;;15.60;12.07;;;9.00;99.90;;;;;;4903172;29;20487;-62
2023/11/11 09:31:28;;;;;;;14.77;11.10;;;9.00;99.90;;;;;;4906066;29;21125;-64
2023/11/11 09:34:00;;;;;;;13.77;10.60;;;9.00;99.90;;;;;;4903897;28;20699;-63
2023/11/11 09:36:28;;;;;;;14.57;11.37;;;9.10;99.90;;;;;;4907807;29;21001;-64
2023/11/11 09:38:57;;;;;;;16.40;11.80;;;9.10;99.90;;;;;;4901555;29;20489;-62
2023/11/11 09:41:27;;;;;;;13.50;10.67;;;9.10;99.90;;;;;;4910425;29;20538;-63
2023/11/11 09:43:55;;;;;;;17.10;11.13;;;9.10;99.90;;;;;;4910956;28;20595;-65
2023/11/11 09:46:26;;;;;;;15.10;11.80;;;9.10;99.90;;;;;;4912394;29;20562;-64
2023/11/11 09:48:54;;;;;;;15.40;11.90;;;9.20;99.90;;;;;;4912304;29;20964;-65
2023/11/11 09:51:24;;;;;;;14.90;10.87;;;9.20;99.90;;;;;;4916429;29;20528;-64
2023/11/11 09:53:54;;;;;;;13.70;11.43;;;9.20;99.90;;;;;;4918644;28;20505;-64
2023/11/11 09:56:24;;;;;;;15.60;11.37;;;9.20;99.90;;;;;;4915868;29;20480;-64
2023/11/11 09:58:56;;;;;;;14.70;11.57;;;9.20;99.90;;;;;;4910649;28;20480;-65
2023/11/11 10:01:25;;;;;;;13.10;10.87;;;9.20;99.90;;;;;;4915233;29;20478;-64
2023/11/11 10:03:53;;;;;;;15.03;10.77;;;9.20;99.90;;;;;;4912392;28;20515;-65
2023/11/11 10:06:24;;;;;;;13.30;10.33;;;9.20;99.90;;;;;;4916107;29;20476;-65
2023/11/11 10:08:52;;;;;;;12.50;9.67;;;9.20;99.90;;;;;;4918206;29;20727;-65
2023/11/11 10:11:20;;;;;;;12.80;9.83;;;9.20;99.90;;;;;;4924256;29;20934;-64
2023/11/11 10:13:50;;;;;;;9.43;8.43;;;9.20;99.90;;;;;;4913189;28;21102;-65
2023/11/11 10:16:18;;;;;;;10.07;8.93;;;9.20;99.90;;;;;;4915856;29;20560;-64
2023/11/11 10:18:46;;;;;;;13.60;9.00;;;9.20;99.90;;;;;;4916479;29;20523;-65
2023/11/11 10:21:16;;;;;;;10.00;8.57;;;9.20;99.90;;;;;;4912704;29;20469;-65
2023/11/11 10:23:47;;;;;;;11.93;8.80;;;9.20;99.90;;;;;;4911130;28;20491;-66
2023/11/11 10:26:16;;;;;;;12.83;9.87;;;9.20;99.90;;;;;;4913651;29;20562;-66
2023/11/11 10:28:48;;;;;;;11.93;9.40;;;9.20;99.90;;;;;;4910140;29;20483;-64
2023/11/11 10:31:18;;;;;;;11.17;10.00;;;9.20;99.90;;;;;;4914866;29;20602;-64
2023/11/11 10:33:52;;;;;;;12.20;9.97;;;9.20;99.90;;;;;;4912571;28;20707;-64
2023/11/11 10:36:22;;;;;;;11.90;9.20;;;9.20;99.90;;;;;;4915534;29;20491;-65
2023/11/11 10:38:54;;;;;;;11.53;9.70;;;9.30;99.90;;;;;;4914386;29;20488;-65
2023/11/11 10:41:23;;;;;;;10.70;9.17;;;9.30;99.90;;;;;;4914360;29;20492;-65
2023/11/11 10:43:51;;;;;;;10.80;8.80;;;9.30;99.90;;;;;;4912946;28;21113;-65
2023/11/11 10:46:19;;;;;;;11.63;9.20;;;9.30;99.90;;;;;;4914351;29;20476;-65
2023/11/11 10:48:48;;;;;;;10.27;9.07;;;9.40;99.90;;;;;;4915765;29;20487;-65
2023/11/11 10:51:18;;;;;;;9.40;7.73;;;9.40;99.90;;;;;;4910829;29;20858;-65
2023/11/11 10:53:49;;;;;;;14.23;8.50;;;9.40;99.90;;;;;;4913418;28;20493;-64
2023/11/11 10:56:19;;;;;;;9.10;7.90;;;9.40;99.90;;;;;;4911575;29;20925;-64
2023/11/11 10:58:49;;;;;;;10.70;8.27;;;9.40;99.90;;;;;;4913228;29;21127;-65
2023/11/11 11:01:17;;;;;;;9.23;7.97;;;9.40;99.90;;;;;;4911078;29;20473;-64
2023/11/11 11:03:47;;;;;;;8.67;7.70;;;9.40;99.90;;;;;;4906992;28;20528;-65
2023/11/11 11:06:24;;;;;;;8.73;7.83;;;9.40;99.90;;;;;;4912570;29;20496;-64
2023/11/11 11:09:06;;;;;;;9.77;7.80;;;9.40;99.90;;;;;;4896947;29;20500;-64
2023/11/11 11:11:44;;;;;;;10.10;8.70;;;9.30;99.90;;;;;;4896146;29;20527;-65
2023/11/11 11:14:19;;;;;;;9.70;8.10;;;9.30;99.90;;;;;;4903761;28;20512;-65
2023/11/11 11:16:49;;;;;;;9.50;8.50;;;9.30;99.90;;;;;;4905962;29;20480;-65
2023/11/11 11:19:19;;;;;;;9.17;7.60;;;9.30;99.90;;;;;;4920362;29;20982;-65
2023/11/11 11:21:51;;;;;;;11.00;8.37;;;9.30;99.90;;;;;;4921757;29;20586;-65
2023/11/11 11:24:19;;;;;;;9.40;7.70;;;9.20;99.90;;;;;;4913155;28;20598;-65
2023/11/11 11:26:49;;;;;;;8.33;6.80;;;9.20;99.90;;;;;;4902462;29;20473;-65
2023/11/11 11:29:19;;;;;;;8.03;6.30;;;9.20;99.90;;;;;;4911073;29;20509;-64
2023/11/11 11:32:07;;;;;;;7.20;5.70;;;9.20;99.90;;;;;;4909434;29;20602;-65
2023/11/11 11:34:36;;;;;;;6.40;4.93;;;9.30;99.90;;;;;;4905451;28;20501;-65
2023/11/11 11:37:05;;;;;;;5.40;4.60;;;9.30;99.90;;;;;;4910069;29;20579;-65
2023/11/11 11:39:53;;;;;;;5.47;4.93;;;9.30;99.90;;;;;;4914034;29;20860;-64
2023/11/11 11:42:23;;;;;;;5.13;4.17;;;9.30;99.90;;;;;;4918194;29;20556;-65
2023/11/11 11:44:55;;;;;;;4.60;3.60;;;9.30;99.90;;;;;;4904450;28;20587;-64
2023/11/11 11:47:27;;;;;;;4.33;3.80;;;9.30;99.90;;;;;;4916545;29;20488;-66
2023/11/11 11:49:55;;;;;;;4.30;3.90;;;9.40;99.90;;;;;;4908211;29;20479;-66
2023/11/11 11:52:24;;;;;;;5.00;4.03;;;9.40;99.90;;;;;;4917081;29;20510;-66
2023/11/11 11:54:53;;;;;;;7.20;4.00;;;9.40;99.90;;;;;;4903425;28;20499;-64
2023/11/11 11:57:22;;;;;;;5.57;3.70;;;9.40;99.90;;;;;;4905473;29;20487;-65
2023/11/11 12:00:05;;;;;;;5.27;3.30;;;9.40;99.90;;;;;;4910633;29;20479;-65
2023/11/11 12:02:36;;;;;;;3.77;3.10;;;9.40;99.90;;;;;;4908983;29;20959;-65
2023/11/11 12:05:08;;;;;;;3.57;3.27;;;9.50;99.90;;;;;;4911202;28;20503;-66
2023/11/11 12:07:37;;;;;;;6.80;4.20;;;9.40;99.90;;;;;;4913655;29;20475;-66
2023/11/11 12:10:06;;;;;;;5.33;4.00;;;9.40;99.90;;;;;;4919369;29;20639;-65
2023/11/11 12:12:36;;;;;;;5.10;4.00;;;9.40;99.90;;;;;;4914861;29;20588;-65
2023/11/11 12:15:10;;;;;;;3.70;3.30;;;9.40;99.90;;;;;;4910465;28;21837;-66
2023/11/11 12:17:40;;;;;;;4.50;3.87;;;9.40;99.90;;;;;;4909344;29;20495;-65
2023/11/11 12:20:09;;;;;;;4.73;3.73;;;9.40;99.90;;;;;;4910222;29;20480;-66
2023/11/11 12:22:42;;;;;;;5.90;3.93;;;9.40;99.90;;;;;;4904444;29;20563;-66
2023/11/11 12:25:11;;;;;;;4.07;3.40;;;9.40;99.90;;;;;;4900312;28;20510;-65
2023/11/11 12:27:43;;;;;;;4.93;4.23;;;9.40;99.90;;;;;;4899899;29;20491;-65
2023/11/11 12:30:19;;;;;;;4.30;3.90;;;9.40;99.90;;;;;;4906176;29;20523;-66
2023/11/11 12:33:03;;;;;;;5.77;4.40;;;9.30;99.90;;;;;;4907834;29;21052;-66
2023/11/11 12:35:32;;;;;;;4.40;3.80;;;9.30;99.90;;;;;;4917095;29;20480;-66
2023/11/11 12:38:15;;;;;;;3.67;3.10;;;9.30;99.90;;;;;;4907850;29;20487;-65
2023/11/11 12:40:43;;;;;;;3.90;2.70;;;9.30;99.90;;;;;;4909534;29;20588;-66
2023/11/11 12:43:14;;;;;;;4.47;2.40;;;9.30;99.90;;;;;;4907054;28;20483;-66
2023/11/11 12:45:46;;;;;;;2.90;2.57;;;9.30;99.90;;;;;;4910262;29;20491;-64
2023/11/11 12:48:16;;;;;;;2.63;2.43;;;9.20;99.90;;;;;;4914876;29;20484;-65
2023/11/11 12:50:45;;;;;;;2.67;2.47;;;9.30;99.90;;;;;;4913094;29;20468;-65
2023/11/11 12:53:14;;;;;;;3.30;1.73;;;9.30;99.90;;;;;;4910810;28;20510;-65
2023/11/11 12:55:44;;;;;;;2.17;1.60;;;9.30;99.90;;;;;;4916645;29;20482;-66
2023/11/11 12:58:27;;;;;;;1.87;1.67;;;9.30;99.90;;;;;;4909333;29;20999;-65
2023/11/11 13:00:57;;;;;;;1.97;1.37;;;9.20;99.90;;;;;;4914801;29;21010;-65
2023/11/11 13:03:28;;;;;;;2.80;1.60;;;9.20;99.90;;;;;;4916655;28;21212;-66